sensor_id;sensor_type;location;lat;lon;timestamp;P1;durP1;ratioP1;P2;durP2;ratioP2
67828;SDS011;54626;45.436;10.942;2022-09-03T00:01:43;8.50;;;3.08;;
67828;SDS011;54626;45.436;10.942;2022-09-03T00:04:21;6.15;;;2.85;;
67828;SDS011;54626;45.436;10.942;2022-09-03T00:06:57;11.02;;;3.28;;
67828;SDS011;54626;45.436;10.942;2022-09-03T00:09:29;6.97;;;3.20;;
67828;SDS011;54626;45.436;10.942;2022-09-03T00:12:08;4.55;;;2.05;;
67828;SDS011;54626;45.436;10.942;2022-09-03T00:14:39;4.45;;;2.20;;
67828;SDS011;54626;45.436;10.942;2022-09-03T00:17:30;5.30;;;2.47;;
67828;SDS011;54626;45.436;10.942;2022-09-03T00:22:49;3.85;;;1.98;;
67828;SDS011;54626;45.436;10.942;2022-09-03T00:25:18;4.85;;;2.30;;
67828;SDS011;54626;45.436;10.942;2022-09-03T00:27:52;4.43;;;2.03;;
67828;SDS011;54626;45.436;10.942;2022-09-03T00:30:24;2.45;;;1.52;;
67828;SDS011;54626;45.436;10.942;2022-09-03T00:35:33;3.72;;;2.42;;
67828;SDS011;54626;45.436;10.942;2022-09-03T00:38:19;6.88;;;2.85;;
67828;SDS011;54626;45.436;10.942;2022-09-03T00:40:51;3.60;;;2.05;;
67828;SDS011;54626;45.436;10.942;2022-09-03T00:55:02;4.97;;;2.45;;
67828;SDS011;54626;45.436;10.942;2022-09-03T01:00:37;2.72;;;1.55;;
67828;SDS011;54626;45.436;10.942;2022-09-03T01:03:22;2.47;;;1.90;;
67828;SDS011;54626;45.436;10.942;2022-09-03T01:09:05;2.83;;;1.88;;
67828;SDS011;54626;45.436;10.942;2022-09-03T01:14:57;3.53;;;2.42;;
67828;SDS011;54626;45.436;10.942;2022-09-03T01:17:29;4.45;;;3.10;;
67828;SDS011;54626;45.436;10.942;2022-09-03T01:29:05;4.45;;;2.33;;
67828;SDS011;54626;45.436;10.942;2022-09-03T01:34:52;3.05;;;1.50;;
67828;SDS011;54626;45.436;10.942;2022-09-03T01:37:50;2.58;;;1.50;;
67828;SDS011;54626;45.436;10.942;2022-09-03T01:57:45;6.53;;;3.22;;
67828;SDS011;54626;45.436;10.942;2022-09-03T02:00:18;3.58;;;1.77;;
67828;SDS011;54626;45.436;10.942;2022-09-03T02:02:48;4.55;;;3.15;;
67828;SDS011;54626;45.436;10.942;2022-09-03T02:05:18;4.60;;;3.40;;
67828;SDS011;54626;45.436;10.942;2022-09-03T02:10:27;4.78;;;2.03;;
67828;SDS011;54626;45.436;10.942;2022-09-03T02:12:58;3.10;;;1.98;;
67828;SDS011;54626;45.436;10.942;2022-09-03T02:15:29;5.07;;;2.13;;
67828;SDS011;54626;45.436;10.942;2022-09-03T02:17:58;3.80;;;2.10;;
67828;SDS011;54626;45.436;10.942;2022-09-03T02:20:27;2.83;;;1.77;;
67828;SDS011;54626;45.436;10.942;2022-09-03T02:22:59;3.95;;;2.20;;
67828;SDS011;54626;45.436;10.942;2022-09-03T02:25:36;3.95;;;1.98;;
67828;SDS011;54626;45.436;10.942;2022-09-03T02:28:08;2.45;;;1.67;;
67828;SDS011;54626;45.436;10.942;2022-09-03T02:30:42;5.65;;;3.20;;
67828;SDS011;54626;45.436;10.942;2022-09-03T02:33:09;4.00;;;2.00;;
67828;SDS011;54626;45.436;10.942;2022-09-03T02:35:36;2.88;;;1.73;;
67828;SDS011;54626;45.436;10.942;2022-09-03T02:38:10;3.88;;;2.63;;
67828;SDS011;54626;45.436;10.942;2022-09-03T02:43:17;4.65;;;2.80;;
67828;SDS011;54626;45.436;10.942;2022-09-03T02:45:51;3.17;;;1.60;;
67828;SDS011;54626;45.436;10.942;2022-09-03T02:48:22;4.35;;;2.85;;
67828;SDS011;54626;45.436;10.942;2022-09-03T02:50:49;4.28;;;2.55;;
67828;SDS011;54626;45.436;10.942;2022-09-03T02:53:16;2.90;;;2.15;;
67828;SDS011;54626;45.436;10.942;2022-09-03T02:55:42;5.38;;;2.90;;
67828;SDS011;54626;45.436;10.942;2022-09-03T02:58:09;2.92;;;1.85;;
67828;SDS011;54626;45.436;10.942;2022-09-03T03:00:35;5.80;;;3.10;;
67828;SDS011;54626;45.436;10.942;2022-09-03T03:03:03;6.45;;;3.58;;
67828;SDS011;54626;45.436;10.942;2022-09-03T03:05:43;4.75;;;2.95;;
67828;SDS011;54626;45.436;10.942;2022-09-03T03:08:11;3.15;;;1.90;;
67828;SDS011;54626;45.436;10.942;2022-09-03T03:10:43;3.88;;;2.45;;
67828;SDS011;54626;45.436;10.942;2022-09-03T03:13:10;5.28;;;1.90;;
67828;SDS011;54626;45.436;10.942;2022-09-03T03:15:37;6.40;;;2.42;;
67828;SDS011;54626;45.436;10.942;2022-09-03T03:18:04;2.88;;;2.10;;
67828;SDS011;54626;45.436;10.942;2022-09-03T03:20:31;5.43;;;3.70;;
67828;SDS011;54626;45.436;10.942;2022-09-03T03:23:01;5.55;;;3.35;;
67828;SDS011;54626;45.436;10.942;2022-09-03T03:25:30;5.63;;;3.17;;
67828;SDS011;54626;45.436;10.942;2022-09-03T03:27:58;2.80;;;2.08;;
67828;SDS011;54626;45.436;10.942;2022-09-03T03:30:25;5.65;;;3.97;;
67828;SDS011;54626;45.436;10.942;2022-09-03T03:32:52;4.43;;;3.05;;
67828;SDS011;54626;45.436;10.942;2022-09-03T03:35:19;4.30;;;2.55;;
67828;SDS011;54626;45.436;10.942;2022-09-03T03:37:45;6.32;;;4.15;;
67828;SDS011;54626;45.436;10.942;2022-09-03T03:40:12;5.93;;;3.92;;
67828;SDS011;54626;45.436;10.942;2022-09-03T03:42:39;3.80;;;2.78;;
67828;SDS011;54626;45.436;10.942;2022-09-03T03:45:06;2.55;;;2.05;;
67828;SDS011;54626;45.436;10.942;2022-09-03T03:47:35;5.32;;;3.50;;
67828;SDS011;54626;45.436;10.942;2022-09-03T03:50:02;5.80;;;3.88;;
67828;SDS011;54626;45.436;10.942;2022-09-03T03:52:29;10.82;;;4.40;;
67828;SDS011;54626;45.436;10.942;2022-09-03T03:54:56;7.97;;;3.92;;
67828;SDS011;54626;45.436;10.942;2022-09-03T03:57:22;5.28;;;3.58;;
67828;SDS011;54626;45.436;10.942;2022-09-03T03:59:49;5.07;;;3.78;;
67828;SDS011;54626;45.436;10.942;2022-09-03T04:02:16;2.80;;;1.90;;
67828;SDS011;54626;45.436;10.942;2022-09-03T04:04:43;4.13;;;2.55;;
67828;SDS011;54626;45.436;10.942;2022-09-03T04:07:09;3.28;;;1.80;;
67828;SDS011;54626;45.436;10.942;2022-09-03T04:09:36;5.28;;;2.60;;
67828;SDS011;54626;45.436;10.942;2022-09-03T04:12:04;7.15;;;4.55;;
67828;SDS011;54626;45.436;10.942;2022-09-03T04:14:33;5.72;;;3.40;;
67828;SDS011;54626;45.436;10.942;2022-09-03T04:17:00;4.85;;;2.40;;
67828;SDS011;54626;45.436;10.942;2022-09-03T04:19:28;7.07;;;3.50;;
67828;SDS011;54626;45.436;10.942;2022-09-03T04:21:55;3.92;;;2.10;;
67828;SDS011;54626;45.436;10.942;2022-09-03T04:24:21;6.47;;;3.95;;
67828;SDS011;54626;45.436;10.942;2022-09-03T04:26:49;4.32;;;2.58;;
67828;SDS011;54626;45.436;10.942;2022-09-03T04:29:15;3.30;;;2.25;;
67828;SDS011;54626;45.436;10.942;2022-09-03T04:31:43;3.58;;;2.50;;
67828;SDS011;54626;45.436;10.942;2022-09-03T04:34:29;6.95;;;4.03;;
67828;SDS011;54626;45.436;10.942;2022-09-03T04:36:55;6.85;;;4.72;;
67828;SDS011;54626;45.436;10.942;2022-09-03T04:39:24;3.38;;;2.40;;
67828;SDS011;54626;45.436;10.942;2022-09-03T04:41:52;3.13;;;2.58;;
67828;SDS011;54626;45.436;10.942;2022-09-03T04:44:19;6.10;;;4.13;;
67828;SDS011;54626;45.436;10.942;2022-09-03T04:46:46;3.53;;;1.90;;
67828;SDS011;54626;45.436;10.942;2022-09-03T04:49:13;3.95;;;2.75;;
67828;SDS011;54626;45.436;10.942;2022-09-03T04:54:12;7.15;;;3.70;;
67828;SDS011;54626;45.436;10.942;2022-09-03T04:56:38;5.57;;;2.15;;
67828;SDS011;54626;45.436;10.942;2022-09-03T04:59:07;8.27;;;3.78;;
67828;SDS011;54626;45.436;10.942;2022-09-03T05:01:36;7.40;;;3.83;;
67828;SDS011;54626;45.436;10.942;2022-09-03T05:04:04;4.95;;;2.70;;
67828;SDS011;54626;45.436;10.942;2022-09-03T05:06:32;5.43;;;2.88;;
67828;SDS011;54626;45.436;10.942;2022-09-03T05:08:59;4.82;;;2.92;;
67828;SDS011;54626;45.436;10.942;2022-09-03T05:11:27;3.67;;;2.17;;
67828;SDS011;54626;45.436;10.942;2022-09-03T05:13:55;3.75;;;2.13;;
67828;SDS011;54626;45.436;10.942;2022-09-03T05:16:23;4.10;;;2.10;;
67828;SDS011;54626;45.436;10.942;2022-09-03T05:18:54;3.33;;;2.10;;
67828;SDS011;54626;45.436;10.942;2022-09-03T05:21:22;3.75;;;2.03;;
67828;SDS011;54626;45.436;10.942;2022-09-03T05:23:51;4.43;;;2.78;;
67828;SDS011;54626;45.436;10.942;2022-09-03T05:26:24;3.08;;;1.75;;
67828;SDS011;54626;45.436;10.942;2022-09-03T05:28:55;5.18;;;3.42;;
67828;SDS011;54626;45.436;10.942;2022-09-03T05:31:27;7.57;;;3.50;;
67828;SDS011;54626;45.436;10.942;2022-09-03T05:34:01;4.55;;;2.55;;
67828;SDS011;54626;45.436;10.942;2022-09-03T05:36:31;3.53;;;2.30;;
67828;SDS011;54626;45.436;10.942;2022-09-03T05:38:59;3.47;;;2.65;;
67828;SDS011;54626;45.436;10.942;2022-09-03T05:41:27;5.75;;;3.55;;
67828;SDS011;54626;45.436;10.942;2022-09-03T05:43:55;6.72;;;4.03;;
67828;SDS011;54626;45.436;10.942;2022-09-03T05:46:29;3.88;;;2.60;;
67828;SDS011;54626;45.436;10.942;2022-09-03T05:49:00;4.10;;;2.80;;
67828;SDS011;54626;45.436;10.942;2022-09-03T05:51:29;4.80;;;2.65;;
67828;SDS011;54626;45.436;10.942;2022-09-03T05:53:59;6.68;;;3.38;;
67828;SDS011;54626;45.436;10.942;2022-09-03T05:56:29;7.75;;;4.30;;
67828;SDS011;54626;45.436;10.942;2022-09-03T05:59:00;6.47;;;3.72;;
67828;SDS011;54626;45.436;10.942;2022-09-03T06:01:33;5.03;;;3.17;;
67828;SDS011;54626;45.436;10.942;2022-09-03T06:04:02;2.80;;;2.20;;
67828;SDS011;54626;45.436;10.942;2022-09-03T06:06:37;2.75;;;2.08;;
67828;SDS011;54626;45.436;10.942;2022-09-03T06:09:08;4.30;;;2.80;;
67828;SDS011;54626;45.436;10.942;2022-09-03T06:11:37;4.22;;;2.65;;
67828;SDS011;54626;45.436;10.942;2022-09-03T06:14:07;5.10;;;2.20;;
67828;SDS011;54626;45.436;10.942;2022-09-03T06:16:41;5.70;;;2.15;;
67828;SDS011;54626;45.436;10.942;2022-09-03T06:19:10;6.93;;;3.22;;
67828;SDS011;54626;45.436;10.942;2022-09-03T06:21:44;4.32;;;2.08;;
67828;SDS011;54626;45.436;10.942;2022-09-03T06:24:21;5.85;;;2.65;;
67828;SDS011;54626;45.436;10.942;2022-09-03T06:26:54;6.55;;;2.70;;
67828;SDS011;54626;45.436;10.942;2022-09-03T06:29:28;5.78;;;3.25;;
67828;SDS011;54626;45.436;10.942;2022-09-03T06:31:55;3.75;;;2.70;;
67828;SDS011;54626;45.436;10.942;2022-09-03T06:34:22;5.72;;;3.95;;
67828;SDS011;54626;45.436;10.942;2022-09-03T06:36:51;4.28;;;2.58;;
67828;SDS011;54626;45.436;10.942;2022-09-03T06:39:20;9.57;;;3.28;;
67828;SDS011;54626;45.436;10.942;2022-09-03T06:41:49;5.55;;;2.92;;
67828;SDS011;54626;45.436;10.942;2022-09-03T06:44:17;6.43;;;2.47;;
67828;SDS011;54626;45.436;10.942;2022-09-03T06:46:43;4.53;;;3.40;;
67828;SDS011;54626;45.436;10.942;2022-09-03T06:49:11;5.57;;;3.35;;
67828;SDS011;54626;45.436;10.942;2022-09-03T06:51:42;5.95;;;3.58;;
67828;SDS011;54626;45.436;10.942;2022-09-03T06:54:10;2.78;;;2.00;;
67828;SDS011;54626;45.436;10.942;2022-09-03T06:56:39;3.88;;;2.78;;
67828;SDS011;54626;45.436;10.942;2022-09-03T06:59:07;5.70;;;3.58;;
67828;SDS011;54626;45.436;10.942;2022-09-03T07:01:36;4.45;;;2.45;;
67828;SDS011;54626;45.436;10.942;2022-09-03T07:04:09;4.45;;;2.63;;
67828;SDS011;54626;45.436;10.942;2022-09-03T07:06:38;4.72;;;2.85;;
67828;SDS011;54626;45.436;10.942;2022-09-03T07:09:06;6.18;;;2.72;;
67828;SDS011;54626;45.436;10.942;2022-09-03T07:11:34;3.92;;;2.28;;
67828;SDS011;54626;45.436;10.942;2022-09-03T07:14:02;4.88;;;2.65;;
67828;SDS011;54626;45.436;10.942;2022-09-03T07:16:37;6.28;;;3.75;;
67828;SDS011;54626;45.436;10.942;2022-09-03T07:19:04;3.65;;;2.50;;
67828;SDS011;54626;45.436;10.942;2022-09-03T07:21:32;3.88;;;2.00;;
67828;SDS011;54626;45.436;10.942;2022-09-03T07:24:01;7.93;;;3.70;;
67828;SDS011;54626;45.436;10.942;2022-09-03T07:26:31;5.32;;;3.17;;
67828;SDS011;54626;45.436;10.942;2022-09-03T07:28:59;4.82;;;2.63;;
67828;SDS011;54626;45.436;10.942;2022-09-03T07:31:29;3.05;;;2.08;;
67828;SDS011;54626;45.436;10.942;2022-09-03T07:34:03;4.90;;;2.30;;
67828;SDS011;54626;45.436;10.942;2022-09-03T07:36:36;2.75;;;1.77;;
67828;SDS011;54626;45.436;10.942;2022-09-03T07:39:04;2.78;;;1.98;;
67828;SDS011;54626;45.436;10.942;2022-09-03T07:41:32;2.45;;;1.60;;
67828;SDS011;54626;45.436;10.942;2022-09-03T07:43:59;2.47;;;1.75;;
67828;SDS011;54626;45.436;10.942;2022-09-03T07:46:37;3.10;;;1.98;;
67828;SDS011;54626;45.436;10.942;2022-09-03T07:49:11;4.63;;;2.08;;
67828;SDS011;54626;45.436;10.942;2022-09-03T07:51:42;4.90;;;1.90;;
67828;SDS011;54626;45.436;10.942;2022-09-03T07:54:12;2.95;;;1.75;;
67828;SDS011;54626;45.436;10.942;2022-09-03T07:56:39;4.55;;;2.28;;
67828;SDS011;54626;45.436;10.942;2022-09-03T07:59:06;1.90;;;1.27;;
67828;SDS011;54626;45.436;10.942;2022-09-03T08:01:33;3.28;;;2.20;;
67828;SDS011;54626;45.436;10.942;2022-09-03T08:04:06;2.75;;;1.95;;
67828;SDS011;54626;45.436;10.942;2022-09-03T08:06:35;3.65;;;1.52;;
67828;SDS011;54626;45.436;10.942;2022-09-03T08:09:07;2.80;;;1.50;;
67828;SDS011;54626;45.436;10.942;2022-09-03T08:11:44;3.25;;;1.85;;
67828;SDS011;54626;45.436;10.942;2022-09-03T08:14:13;2.30;;;1.60;;
67828;SDS011;54626;45.436;10.942;2022-09-03T08:16:45;3.00;;;1.83;;
67828;SDS011;54626;45.436;10.942;2022-09-03T08:19:16;3.10;;;1.67;;
67828;SDS011;54626;45.436;10.942;2022-09-03T08:21:45;2.75;;;1.92;;
67828;SDS011;54626;45.436;10.942;2022-09-03T08:24:18;3.88;;;2.25;;
67828;SDS011;54626;45.436;10.942;2022-09-03T08:26:56;3.80;;;1.75;;
67828;SDS011;54626;45.436;10.942;2022-09-03T08:29:23;3.67;;;1.77;;
67828;SDS011;54626;45.436;10.942;2022-09-03T08:31:49;3.20;;;1.77;;
67828;SDS011;54626;45.436;10.942;2022-09-03T08:34:19;3.67;;;1.70;;
67828;SDS011;54626;45.436;10.942;2022-09-03T08:36:48;2.83;;;1.73;;
67828;SDS011;54626;45.436;10.942;2022-09-03T08:39:17;4.28;;;1.85;;
67828;SDS011;54626;45.436;10.942;2022-09-03T08:55:50;2.45;;;1.30;;
67828;SDS011;54626;45.436;10.942;2022-09-03T08:58:28;2.28;;;1.65;;
67828;SDS011;54626;45.436;10.942;2022-09-03T09:01:12;1.92;;;1.38;;
67828;SDS011;54626;45.436;10.942;2022-09-03T09:09:14;2.20;;;1.20;;
67828;SDS011;54626;45.436;10.942;2022-09-03T09:11:49;3.00;;;1.38;;
67828;SDS011;54626;45.436;10.942;2022-09-03T09:20:02;1.70;;;1.20;;
67828;SDS011;54626;45.436;10.942;2022-09-03T09:25:23;1.65;;;1.00;;
67828;SDS011;54626;45.436;10.942;2022-09-03T09:28:00;1.10;;;0.90;;
67828;SDS011;54626;45.436;10.942;2022-09-03T09:30:29;1.65;;;1.17;;
67828;SDS011;54626;45.436;10.942;2022-09-03T09:32:56;1.70;;;1.13;;
67828;SDS011;54626;45.436;10.942;2022-09-03T09:35:25;2.30;;;1.13;;
67828;SDS011;54626;45.436;10.942;2022-09-03T09:37:53;1.50;;;1.15;;
67828;SDS011;54626;45.436;10.942;2022-09-03T09:40:26;3.13;;;1.42;;
67828;SDS011;54626;45.436;10.942;2022-09-03T09:43:17;1.63;;;0.85;;
67828;SDS011;54626;45.436;10.942;2022-09-03T09:45:50;2.28;;;1.17;;
67828;SDS011;54626;45.436;10.942;2022-09-03T09:51:03;2.60;;;1.27;;
67828;SDS011;54626;45.436;10.942;2022-09-03T09:55:58;2.78;;;1.33;;
67828;SDS011;54626;45.436;10.942;2022-09-03T09:58:26;1.55;;;1.05;;
67828;SDS011;54626;45.436;10.942;2022-09-03T10:03:51;2.55;;;1.30;;
67828;SDS011;54626;45.436;10.942;2022-09-03T10:06:27;2.38;;;1.25;;
67828;SDS011;54626;45.436;10.942;2022-09-03T10:09:15;2.83;;;1.00;;
67828;SDS011;54626;45.436;10.942;2022-09-03T10:11:47;1.70;;;1.10;;
67828;SDS011;54626;45.436;10.942;2022-09-03T10:14:19;4.03;;;1.23;;
67828;SDS011;54626;45.436;10.942;2022-09-03T10:19:40;1.90;;;1.13;;
67828;SDS011;54626;45.436;10.942;2022-09-03T10:22:10;1.50;;;1.00;;
67828;SDS011;54626;45.436;10.942;2022-09-03T10:27:39;2.55;;;1.20;;
67828;SDS011;54626;45.436;10.942;2022-09-03T10:30:06;2.47;;;1.25;;
67828;SDS011;54626;45.436;10.942;2022-09-03T10:32:44;3.08;;;1.30;;
67828;SDS011;54626;45.436;10.942;2022-09-03T10:38:05;1.67;;;0.98;;
67828;SDS011;54626;45.436;10.942;2022-09-03T10:40:41;1.50;;;1.20;;
67828;SDS011;54626;45.436;10.942;2022-09-03T10:46:21;2.92;;;1.15;;
67828;SDS011;54626;45.436;10.942;2022-09-03T10:49:03;2.42;;;1.20;;
67828;SDS011;54626;45.436;10.942;2022-09-03T10:51:35;1.80;;;1.10;;
67828;SDS011;54626;45.436;10.942;2022-09-03T10:57:23;1.98;;;1.20;;
67828;SDS011;54626;45.436;10.942;2022-09-03T11:05:22;1.42;;;1.25;;
67828;SDS011;54626;45.436;10.942;2022-09-03T11:08:04;3.17;;;1.20;;
67828;SDS011;54626;45.436;10.942;2022-09-03T11:10:40;2.40;;;1.17;;
67828;SDS011;54626;45.436;10.942;2022-09-03T11:13:14;2.42;;;1.45;;
67828;SDS011;54626;45.436;10.942;2022-09-03T11:20:56;3.70;;;1.10;;
67828;SDS011;54626;45.436;10.942;2022-09-03T11:23:26;1.42;;;1.05;;
67828;SDS011;54626;45.436;10.942;2022-09-03T11:25:55;2.88;;;1.45;;
67828;SDS011;54626;45.436;10.942;2022-09-03T11:36:48;1.92;;;1.35;;
67828;SDS011;54626;45.436;10.942;2022-09-03T11:39:19;2.53;;;1.20;;
67828;SDS011;54626;45.436;10.942;2022-09-03T11:41:57;3.08;;;1.40;;
67828;SDS011;54626;45.436;10.942;2022-09-03T11:44:32;1.60;;;1.10;;
67828;SDS011;54626;45.436;10.942;2022-09-03T11:47:23;1.63;;;1.20;;
67828;SDS011;54626;45.436;10.942;2022-09-03T11:50:05;1.80;;;1.15;;
67828;SDS011;54626;45.436;10.942;2022-09-03T11:52:34;2.00;;;0.80;;
67828;SDS011;54626;45.436;10.942;2022-09-03T11:55:06;1.98;;;1.10;;
67828;SDS011;54626;45.436;10.942;2022-09-03T11:57:38;2.60;;;1.42;;
67828;SDS011;54626;45.436;10.942;2022-09-03T12:00:09;1.80;;;1.10;;
67828;SDS011;54626;45.436;10.942;2022-09-03T12:02:43;2.55;;;1.20;;
67828;SDS011;54626;45.436;10.942;2022-09-03T12:05:23;2.30;;;1.25;;
67828;SDS011;54626;45.436;10.942;2022-09-03T12:13:16;1.83;;;1.05;;
67828;SDS011;54626;45.436;10.942;2022-09-03T12:16:04;1.40;;;1.00;;
67828;SDS011;54626;45.436;10.942;2022-09-03T12:18:39;1.95;;;1.10;;
67828;SDS011;54626;45.436;10.942;2022-09-03T12:21:07;1.90;;;1.05;;
67828;SDS011;54626;45.436;10.942;2022-09-03T12:23:41;3.08;;;1.35;;
67828;SDS011;54626;45.436;10.942;2022-09-03T12:26:24;1.92;;;1.20;;
67828;SDS011;54626;45.436;10.942;2022-09-03T12:28:53;1.67;;;1.10;;
67828;SDS011;54626;45.436;10.942;2022-09-03T12:31:24;2.22;;;1.10;;
67828;SDS011;54626;45.436;10.942;2022-09-03T12:33:58;3.05;;;1.27;;
67828;SDS011;54626;45.436;10.942;2022-09-03T12:36:40;1.67;;;1.13;;
67828;SDS011;54626;45.436;10.942;2022-09-03T12:39:15;1.92;;;1.20;;
67828;SDS011;54626;45.436;10.942;2022-09-03T12:42:06;1.70;;;1.05;;
67828;SDS011;54626;45.436;10.942;2022-09-03T12:47:01;1.50;;;0.95;;
67828;SDS011;54626;45.436;10.942;2022-09-03T12:57:59;2.03;;;1.23;;
67828;SDS011;54626;45.436;10.942;2022-09-03T13:00:29;2.13;;;1.27;;
67828;SDS011;54626;45.436;10.942;2022-09-03T13:02:59;2.47;;;1.40;;
67828;SDS011;54626;45.436;10.942;2022-09-03T13:05:46;3.53;;;1.65;;
67828;SDS011;54626;45.436;10.942;2022-09-03T13:08:20;3.55;;;1.50;;
67828;SDS011;54626;45.436;10.942;2022-09-03T13:10:52;1.98;;;1.30;;
67828;SDS011;54626;45.436;10.942;2022-09-03T13:13:22;2.40;;;1.17;;
67828;SDS011;54626;45.436;10.942;2022-09-03T13:23:58;4.57;;;1.70;;
67828;SDS011;54626;45.436;10.942;2022-09-03T13:32:02;2.72;;;1.40;;
67828;SDS011;54626;45.436;10.942;2022-09-03T13:34:49;1.92;;;1.27;;
67828;SDS011;54626;45.436;10.942;2022-09-03T13:37:27;3.13;;;1.80;;
67828;SDS011;54626;45.436;10.942;2022-09-03T13:43:18;2.70;;;1.15;;
67828;SDS011;54626;45.436;10.942;2022-09-03T13:45:56;2.10;;;1.55;;
67828;SDS011;54626;45.436;10.942;2022-09-03T13:51:28;2.75;;;1.55;;
67828;SDS011;54626;45.436;10.942;2022-09-03T13:53:58;1.50;;;1.20;;
67828;SDS011;54626;45.436;10.942;2022-09-03T13:56:35;3.40;;;1.50;;
67828;SDS011;54626;45.436;10.942;2022-09-03T13:59:12;2.92;;;1.50;;
67828;SDS011;54626;45.436;10.942;2022-09-03T14:01:52;2.13;;;1.40;;
67828;SDS011;54626;45.436;10.942;2022-09-03T14:12:43;2.67;;;1.20;;
67828;SDS011;54626;45.436;10.942;2022-09-03T14:17:54;1.65;;;0.93;;
67828;SDS011;54626;45.436;10.942;2022-09-03T14:20:26;2.13;;;1.45;;
67828;SDS011;54626;45.436;10.942;2022-09-03T14:25:59;1.90;;;1.20;;
67828;SDS011;54626;45.436;10.942;2022-09-03T14:28:36;4.43;;;1.42;;
67828;SDS011;54626;45.436;10.942;2022-09-03T14:33:50;2.75;;;1.50;;
67828;SDS011;54626;45.436;10.942;2022-09-03T14:39:15;3.13;;;1.30;;
67828;SDS011;54626;45.436;10.942;2022-09-03T14:41:56;1.63;;;1.30;;
67828;SDS011;54626;45.436;10.942;2022-09-03T14:44:36;2.42;;;1.17;;
67828;SDS011;54626;45.436;10.942;2022-09-03T14:47:12;2.75;;;1.40;;
67828;SDS011;54626;45.436;10.942;2022-09-03T14:57:59;4.32;;;1.85;;
67828;SDS011;54626;45.436;10.942;2022-09-03T15:00:33;1.77;;;1.38;;
67828;SDS011;54626;45.436;10.942;2022-09-03T15:03:24;3.63;;;1.55;;
67828;SDS011;54626;45.436;10.942;2022-09-03T15:06:25;2.75;;;1.60;;
67828;SDS011;54626;45.436;10.942;2022-09-03T15:17:13;3.78;;;1.63;;
67828;SDS011;54626;45.436;10.942;2022-09-03T15:20:17;2.58;;;1.20;;
67828;SDS011;54626;45.436;10.942;2022-09-03T15:37:01;2.75;;;1.80;;
67828;SDS011;54626;45.436;10.942;2022-09-03T15:39:36;2.47;;;1.85;;
67828;SDS011;54626;45.436;10.942;2022-09-03T15:42:06;3.08;;;2.00;;
67828;SDS011;54626;45.436;10.942;2022-09-03T15:44:41;6.25;;;2.88;;
67828;SDS011;54626;45.436;10.942;2022-09-03T15:50:36;2.47;;;1.70;;
67828;SDS011;54626;45.436;10.942;2022-09-03T15:56:06;3.38;;;1.80;;
67828;SDS011;54626;45.436;10.942;2022-09-03T15:58:59;3.58;;;2.10;;
67828;SDS011;54626;45.436;10.942;2022-09-03T16:01:34;2.88;;;1.65;;
67828;SDS011;54626;45.436;10.942;2022-09-03T16:22:59;2.45;;;1.48;;
67828;SDS011;54626;45.436;10.942;2022-09-03T16:25:29;2.25;;;1.70;;
67828;SDS011;54626;45.436;10.942;2022-09-03T16:28:05;2.65;;;1.30;;
67828;SDS011;54626;45.436;10.942;2022-09-03T16:33:21;2.58;;;1.85;;
67828;SDS011;54626;45.436;10.942;2022-09-03T16:39:07;2.15;;;1.27;;
67828;SDS011;54626;45.436;10.942;2022-09-03T16:48:04;5.10;;;2.50;;
67828;SDS011;54626;45.436;10.942;2022-09-03T16:56:45;15.07;;;7.78;;
67828;SDS011;54626;45.436;10.942;2022-09-03T16:59:24;9.68;;;5.35;;
67828;SDS011;54626;45.436;10.942;2022-09-03T17:02:01;4.65;;;2.95;;
67828;SDS011;54626;45.436;10.942;2022-09-03T17:24:42;3.38;;;2.15;;
67828;SDS011;54626;45.436;10.942;2022-09-03T17:30:09;3.90;;;1.88;;
67828;SDS011;54626;45.436;10.942;2022-09-03T17:41:22;3.83;;;2.03;;
67828;SDS011;54626;45.436;10.942;2022-09-03T17:43:52;2.65;;;1.30;;
67828;SDS011;54626;45.436;10.942;2022-09-03T17:48:54;2.28;;;1.80;;
67828;SDS011;54626;45.436;10.942;2022-09-03T17:51:46;2.90;;;1.75;;
67828;SDS011;54626;45.436;10.942;2022-09-03T17:57:12;2.03;;;1.25;;
67828;SDS011;54626;45.436;10.942;2022-09-03T18:00:00;1.92;;;1.33;;
67828;SDS011;54626;45.436;10.942;2022-09-03T18:02:41;2.80;;;1.35;;
67828;SDS011;54626;45.436;10.942;2022-09-03T18:05:28;2.17;;;1.45;;
67828;SDS011;54626;45.436;10.942;2022-09-03T18:13:10;1.77;;;1.30;;
67828;SDS011;54626;45.436;10.942;2022-09-03T18:18:23;2.40;;;1.10;;
67828;SDS011;54626;45.436;10.942;2022-09-03T18:20:53;3.55;;;1.70;;
67828;SDS011;54626;45.436;10.942;2022-09-03T18:27:10;5.43;;;1.63;;
67828;SDS011;54626;45.436;10.942;2022-09-03T18:30:04;3.05;;;1.42;;
67828;SDS011;54626;45.436;10.942;2022-09-03T18:32:53;2.95;;;1.75;;
67828;SDS011;54626;45.436;10.942;2022-09-03T18:35:38;2.08;;;1.08;;
67828;SDS011;54626;45.436;10.942;2022-09-03T18:38:29;2.85;;;1.60;;
67828;SDS011;54626;45.436;10.942;2022-09-03T18:41:20;1.60;;;1.13;;
67828;SDS011;54626;45.436;10.942;2022-09-03T19:01:03;2.75;;;1.65;;
67828;SDS011;54626;45.436;10.942;2022-09-03T19:04:02;2.70;;;1.83;;
67828;SDS011;54626;45.436;10.942;2022-09-03T19:06:59;2.75;;;1.65;;
67828;SDS011;54626;45.436;10.942;2022-09-03T19:09:59;2.47;;;1.63;;
67828;SDS011;54626;45.436;10.942;2022-09-03T19:12:54;5.10;;;2.95;;
67828;SDS011;54626;45.436;10.942;2022-09-03T19:15:58;5.35;;;3.03;;
67828;SDS011;54626;45.436;10.942;2022-09-03T19:18:51;7.28;;;2.90;;
67828;SDS011;54626;45.436;10.942;2022-09-03T19:25:01;4.28;;;1.85;;
67828;SDS011;54626;45.436;10.942;2022-09-03T19:49:23;1.70;;;1.40;;
67828;SDS011;54626;45.436;10.942;2022-09-03T19:52:29;3.40;;;2.58;;
67828;SDS011;54626;45.436;10.942;2022-09-03T19:55:19;3.42;;;1.95;;
67828;SDS011;54626;45.436;10.942;2022-09-03T19:58:09;3.80;;;2.45;;
67828;SDS011;54626;45.436;10.942;2022-09-03T20:01:08;2.58;;;1.95;;
67828;SDS011;54626;45.436;10.942;2022-09-03T20:03:54;4.60;;;2.65;;
67828;SDS011;54626;45.436;10.942;2022-09-03T20:06:40;3.58;;;2.40;;
67828;SDS011;54626;45.436;10.942;2022-09-03T20:09:27;4.85;;;3.20;;
67828;SDS011;54626;45.436;10.942;2022-09-03T20:12:15;3.33;;;2.00;;
67828;SDS011;54626;45.436;10.942;2022-09-03T20:14:43;2.55;;;1.70;;
67828;SDS011;54626;45.436;10.942;2022-09-03T20:20:21;4.65;;;2.38;;
67828;SDS011;54626;45.436;10.942;2022-09-03T20:22:57;5.40;;;2.63;;
67828;SDS011;54626;45.436;10.942;2022-09-03T20:25:39;4.97;;;2.47;;
67828;SDS011;54626;45.436;10.942;2022-09-03T20:40:15;5.80;;;2.47;;
67828;SDS011;54626;45.436;10.942;2022-09-03T20:56:21;2.83;;;1.80;;
67828;SDS011;54626;45.436;10.942;2022-09-03T20:59:09;3.03;;;1.77;;
67828;SDS011;54626;45.436;10.942;2022-09-03T21:01:55;2.65;;;1.77;;
67828;SDS011;54626;45.436;10.942;2022-09-03T21:07:15;3.78;;;1.35;;
67828;SDS011;54626;45.436;10.942;2022-09-03T21:12:37;1.75;;;1.52;;
67828;SDS011;54626;45.436;10.942;2022-09-03T21:18:05;2.38;;;1.27;;
67828;SDS011;54626;45.436;10.942;2022-09-03T21:20:45;2.83;;;1.45;;
67828;SDS011;54626;45.436;10.942;2022-09-03T21:23:29;2.97;;;1.45;;
67828;SDS011;54626;45.436;10.942;2022-09-03T21:31:53;3.60;;;2.13;;
67828;SDS011;54626;45.436;10.942;2022-09-03T21:37:09;2.58;;;1.70;;
67828;SDS011;54626;45.436;10.942;2022-09-03T21:39:41;5.03;;;2.58;;
67828;SDS011;54626;45.436;10.942;2022-09-03T21:42:15;3.30;;;1.73;;
67828;SDS011;54626;45.436;10.942;2022-09-03T21:47:20;2.88;;;1.85;;
67828;SDS011;54626;45.436;10.942;2022-09-03T21:49:53;2.90;;;1.98;;
67828;SDS011;54626;45.436;10.942;2022-09-03T21:52:28;5.00;;;2.30;;
67828;SDS011;54626;45.436;10.942;2022-09-03T21:55:12;2.55;;;1.92;;